sensor_id;sensor_type;location;lat;lon;timestamp;P1;durP1;ratioP1;P2;durP2;ratioP2
46487;SDS011;32202;48.780;9.204;2022-12-07T00:02:04;175.23;;;81.45;;
46487;SDS011;32202;48.780;9.204;2022-12-07T00:04:30;175.68;;;83.30;;
46487;SDS011;32202;48.780;9.204;2022-12-07T00:06:55;159.52;;;76.70;;
46487;SDS011;32202;48.780;9.204;2022-12-07T00:09:21;175.45;;;84.63;;
46487;SDS011;32202;48.780;9.204;2022-12-07T00:11:50;110.03;;;53.22;;
46487;SDS011;32202;48.780;9.204;2022-12-07T00:14:16;25.92;;;13.45;;
46487;SDS011;32202;48.780;9.204;2022-12-07T00:16:42;97.47;;;45.90;;
46487;SDS011;32202;48.780;9.204;2022-12-07T00:19:09;192.65;;;93.93;;
46487;SDS011;32202;48.780;9.204;2022-12-07T00:21:37;38.25;;;21.75;;
46487;SDS011;32202;48.780;9.204;2022-12-07T00:24:03;11.20;;;6.47;;
46487;SDS011;32202;48.780;9.204;2022-12-07T00:26:30;10.35;;;6.15;;
46487;SDS011;32202;48.780;9.204;2022-12-07T00:28:59;11.60;;;6.18;;
46487;SDS011;32202;48.780;9.204;2022-12-07T00:31:27;9.98;;;6.60;;
46487;SDS011;32202;48.780;9.204;2022-12-07T00:33:56;11.10;;;6.82;;
46487;SDS011;32202;48.780;9.204;2022-12-07T00:36:23;10.52;;;6.70;;
46487;SDS011;32202;48.780;9.204;2022-12-07T00:38:49;10.55;;;6.82;;
46487;SDS011;32202;48.780;9.204;2022-12-07T00:41:19;13.93;;;8.10;;
46487;SDS011;32202;48.780;9.204;2022-12-07T00:43:46;11.95;;;6.82;;
46487;SDS011;32202;48.780;9.204;2022-12-07T00:46:13;11.35;;;6.85;;
46487;SDS011;32202;48.780;9.204;2022-12-07T00:48:39;10.68;;;6.93;;
46487;SDS011;32202;48.780;9.204;2022-12-07T00:51:06;11.27;;;6.60;;
46487;SDS011;32202;48.780;9.204;2022-12-07T00:53:33;10.70;;;6.65;;
46487;SDS011;32202;48.780;9.204;2022-12-07T00:56:07;11.43;;;7.13;;
46487;SDS011;32202;48.780;9.204;2022-12-07T00:58:34;10.73;;;6.53;;
46487;SDS011;32202;48.780;9.204;2022-12-07T01:01:00;11.13;;;7.43;;
46487;SDS011;32202;48.780;9.204;2022-12-07T01:03:27;11.30;;;7.07;;
46487;SDS011;32202;48.780;9.204;2022-12-07T01:05:53;11.35;;;7.45;;
46487;SDS011;32202;48.780;9.204;2022-12-07T01:08:19;12.02;;;7.30;;
46487;SDS011;32202;48.780;9.204;2022-12-07T01:10:46;12.57;;;7.13;;
46487;SDS011;32202;48.780;9.204;2022-12-07T01:13:12;10.75;;;7.28;;
46487;SDS011;32202;48.780;9.204;2022-12-07T01:15:41;12.05;;;7.55;;
46487;SDS011;32202;48.780;9.204;2022-12-07T01:18:07;13.63;;;7.80;;
46487;SDS011;32202;48.780;9.204;2022-12-07T01:20:33;13.82;;;8.15;;
46487;SDS011;32202;48.780;9.204;2022-12-07T01:23:00;12.38;;;7.32;;
46487;SDS011;32202;48.780;9.204;2022-12-07T01:25:25;12.90;;;7.95;;
46487;SDS011;32202;48.780;9.204;2022-12-07T01:27:51;11.70;;;7.72;;
46487;SDS011;32202;48.780;9.204;2022-12-07T01:30:17;13.80;;;8.38;;
46487;SDS011;32202;48.780;9.204;2022-12-07T01:32:42;12.65;;;7.30;;
46487;SDS011;32202;48.780;9.204;2022-12-07T01:35:08;12.98;;;7.85;;
46487;SDS011;32202;48.780;9.204;2022-12-07T01:37:35;13.57;;;7.53;;
46487;SDS011;32202;48.780;9.204;2022-12-07T01:40:01;13.27;;;7.55;;
46487;SDS011;32202;48.780;9.204;2022-12-07T01:42:28;12.73;;;8.23;;
46487;SDS011;32202;48.780;9.204;2022-12-07T01:47:57;14.50;;;8.02;;
46487;SDS011;32202;48.780;9.204;2022-12-07T01:50:24;13.15;;;7.97;;
46487;SDS011;32202;48.780;9.204;2022-12-07T01:52:53;12.55;;;7.35;;
46487;SDS011;32202;48.780;9.204;2022-12-07T01:55:21;14.50;;;7.60;;
46487;SDS011;32202;48.780;9.204;2022-12-07T01:57:49;12.35;;;7.57;;
46487;SDS011;32202;48.780;9.204;2022-12-07T02:00:18;14.23;;;8.88;;
46487;SDS011;32202;48.780;9.204;2022-12-07T02:02:46;14.27;;;8.13;;
46487;SDS011;32202;48.780;9.204;2022-12-07T02:05:18;13.80;;;8.15;;
46487;SDS011;32202;48.780;9.204;2022-12-07T02:07:45;11.50;;;7.47;;
46487;SDS011;32202;48.780;9.204;2022-12-07T02:10:17;11.90;;;7.38;;
46487;SDS011;32202;48.780;9.204;2022-12-07T02:12:46;12.90;;;8.20;;
46487;SDS011;32202;48.780;9.204;2022-12-07T02:15:14;12.63;;;7.05;;
46487;SDS011;32202;48.780;9.204;2022-12-07T02:20:39;11.55;;;7.47;;
46487;SDS011;32202;48.780;9.204;2022-12-07T02:31:22;16.67;;;8.13;;
46487;SDS011;32202;48.780;9.204;2022-12-07T02:33:54;12.02;;;6.88;;
46487;SDS011;32202;48.780;9.204;2022-12-07T02:36:29;12.27;;;7.15;;
46487;SDS011;32202;48.780;9.204;2022-12-07T02:41:29;13.32;;;7.85;;
46487;SDS011;32202;48.780;9.204;2022-12-07T02:44:01;16.48;;;7.55;;
46487;SDS011;32202;48.780;9.204;2022-12-07T02:46:40;13.18;;;7.50;;
46487;SDS011;32202;48.780;9.204;2022-12-07T02:49:09;12.48;;;7.88;;
46487;SDS011;32202;48.780;9.204;2022-12-07T02:51:39;13.00;;;7.88;;
46487;SDS011;32202;48.780;9.204;2022-12-07T02:54:17;12.48;;;7.25;;
46487;SDS011;32202;48.780;9.204;2022-12-07T03:12:36;14.32;;;8.10;;
46487;SDS011;32202;48.780;9.204;2022-12-07T03:15:10;12.98;;;7.97;;
46487;SDS011;32202;48.780;9.204;2022-12-07T03:17:41;14.15;;;8.00;;
46487;SDS011;32202;48.780;9.204;2022-12-07T03:20:11;13.80;;;8.30;;
46487;SDS011;32202;48.780;9.204;2022-12-07T03:22:39;12.43;;;7.97;;
46487;SDS011;32202;48.780;9.204;2022-12-07T03:25:08;11.93;;;7.68;;
46487;SDS011;32202;48.780;9.204;2022-12-07T03:30:10;14.10;;;7.68;;
46487;SDS011;32202;48.780;9.204;2022-12-07T03:32:46;13.75;;;7.85;;
46487;SDS011;32202;48.780;9.204;2022-12-07T03:35:19;13.18;;;7.30;;
46487;SDS011;32202;48.780;9.204;2022-12-07T03:38:08;13.55;;;7.68;;
46487;SDS011;32202;48.780;9.204;2022-12-07T03:40:57;12.60;;;7.68;;
46487;SDS011;32202;48.780;9.204;2022-12-07T03:43:24;12.30;;;7.60;;
46487;SDS011;32202;48.780;9.204;2022-12-07T03:51:37;13.15;;;7.95;;
46487;SDS011;32202;48.780;9.204;2022-12-07T03:54:36;11.25;;;6.63;;
46487;SDS011;32202;48.780;9.204;2022-12-07T03:57:09;14.93;;;7.82;;
46487;SDS011;32202;48.780;9.204;2022-12-07T03:59:36;14.45;;;7.63;;
46487;SDS011;32202;48.780;9.204;2022-12-07T04:02:04;13.55;;;7.97;;
46487;SDS011;32202;48.780;9.204;2022-12-07T04:04:31;12.32;;;7.80;;
46487;SDS011;32202;48.780;9.204;2022-12-07T04:06:57;12.77;;;7.63;;
46487;SDS011;32202;48.780;9.204;2022-12-07T04:09:23;14.70;;;7.35;;
46487;SDS011;32202;48.780;9.204;2022-12-07T04:11:48;22.63;;;11.63;;
46487;SDS011;32202;48.780;9.204;2022-12-07T04:14:14;16.70;;;9.38;;
46487;SDS011;32202;48.780;9.204;2022-12-07T04:16:46;12.05;;;7.55;;
46487;SDS011;32202;48.780;9.204;2022-12-07T04:19:13;15.43;;;9.52;;
46487;SDS011;32202;48.780;9.204;2022-12-07T04:21:39;11.95;;;7.93;;
46487;SDS011;32202;48.780;9.204;2022-12-07T04:24:05;13.40;;;7.55;;
46487;SDS011;32202;48.780;9.204;2022-12-07T04:26:31;13.32;;;7.47;;
46487;SDS011;32202;48.780;9.204;2022-12-07T04:28:57;13.45;;;8.10;;
46487;SDS011;32202;48.780;9.204;2022-12-07T04:31:22;12.73;;;8.00;;
46487;SDS011;32202;48.780;9.204;2022-12-07T04:33:48;14.73;;;8.70;;
46487;SDS011;32202;48.780;9.204;2022-12-07T04:36:13;13.57;;;7.43;;
46487;SDS011;32202;48.780;9.204;2022-12-07T04:38:39;11.70;;;7.00;;
46487;SDS011;32202;48.780;9.204;2022-12-07T04:41:08;12.32;;;6.97;;
46487;SDS011;32202;48.780;9.204;2022-12-07T04:43:34;11.70;;;6.55;;
46487;SDS011;32202;48.780;9.204;2022-12-07T04:46:00;11.25;;;6.72;;
46487;SDS011;32202;48.780;9.204;2022-12-07T04:48:26;10.95;;;6.90;;
46487;SDS011;32202;48.780;9.204;2022-12-07T04:50:51;10.85;;;6.30;;
46487;SDS011;32202;48.780;9.204;2022-12-07T04:53:17;8.82;;;5.38;;
46487;SDS011;32202;48.780;9.204;2022-12-07T04:55:44;10.43;;;6.10;;
46487;SDS011;32202;48.780;9.204;2022-12-07T04:58:10;8.80;;;5.20;;
46487;SDS011;32202;48.780;9.204;2022-12-07T05:00:36;8.60;;;5.18;;
46487;SDS011;32202;48.780;9.204;2022-12-07T05:03:02;11.85;;;4.97;;
46487;SDS011;32202;48.780;9.204;2022-12-07T05:05:27;8.02;;;4.40;;
46487;SDS011;32202;48.780;9.204;2022-12-07T05:07:53;7.25;;;4.22;;
46487;SDS011;32202;48.780;9.204;2022-12-07T05:10:18;10.68;;;4.57;;
46487;SDS011;32202;48.780;9.204;2022-12-07T05:12:44;7.72;;;4.63;;
46487;SDS011;32202;48.780;9.204;2022-12-07T05:15:10;8.50;;;4.50;;
46487;SDS011;32202;48.780;9.204;2022-12-07T05:17:37;8.45;;;5.30;;
46487;SDS011;32202;48.780;9.204;2022-12-07T05:20:03;9.00;;;4.95;;
46487;SDS011;32202;48.780;9.204;2022-12-07T05:22:29;8.82;;;4.65;;
46487;SDS011;32202;48.780;9.204;2022-12-07T05:24:55;8.50;;;5.00;;
46487;SDS011;32202;48.780;9.204;2022-12-07T05:27:21;8.93;;;4.97;;
46487;SDS011;32202;48.780;9.204;2022-12-07T05:29:46;9.55;;;5.63;;
46487;SDS011;32202;48.780;9.204;2022-12-07T05:32:12;17.27;;;8.45;;
46487;SDS011;32202;48.780;9.204;2022-12-07T05:34:38;11.30;;;6.30;;
46487;SDS011;32202;48.780;9.204;2022-12-07T05:37:04;11.02;;;6.40;;
46487;SDS011;32202;48.780;9.204;2022-12-07T05:39:29;10.95;;;6.40;;
46487;SDS011;32202;48.780;9.204;2022-12-07T05:41:55;13.77;;;7.50;;
46487;SDS011;32202;48.780;9.204;2022-12-07T05:44:39;29.38;;;14.65;;
46487;SDS011;32202;48.780;9.204;2022-12-07T05:47:09;44.50;;;21.75;;
46487;SDS011;32202;48.780;9.204;2022-12-07T05:49:35;22.27;;;11.73;;
46487;SDS011;32202;48.780;9.204;2022-12-07T05:52:02;50.08;;;25.15;;
46487;SDS011;32202;48.780;9.204;2022-12-07T05:54:28;45.03;;;22.27;;
46487;SDS011;32202;48.780;9.204;2022-12-07T05:56:53;26.42;;;13.63;;
46487;SDS011;32202;48.780;9.204;2022-12-07T05:59:19;31.52;;;15.82;;
46487;SDS011;32202;48.780;9.204;2022-12-07T06:04:26;14.07;;;7.55;;
46487;SDS011;32202;48.780;9.204;2022-12-07T06:06:53;14.43;;;8.02;;
46487;SDS011;32202;48.780;9.204;2022-12-07T06:09:20;13.80;;;7.25;;
46487;SDS011;32202;48.780;9.204;2022-12-07T06:11:46;12.70;;;7.30;;
46487;SDS011;32202;48.780;9.204;2022-12-07T06:14:30;13.10;;;7.43;;
46487;SDS011;32202;48.780;9.204;2022-12-07T06:16:56;13.73;;;7.90;;
46487;SDS011;32202;48.780;9.204;2022-12-07T06:19:22;17.08;;;9.57;;
46487;SDS011;32202;48.780;9.204;2022-12-07T06:21:48;12.65;;;6.95;;
46487;SDS011;32202;48.780;9.204;2022-12-07T06:24:13;13.73;;;7.50;;
46487;SDS011;32202;48.780;9.204;2022-12-07T06:26:40;14.10;;;7.13;;
46487;SDS011;32202;48.780;9.204;2022-12-07T06:29:06;16.25;;;9.75;;
46487;SDS011;32202;48.780;9.204;2022-12-07T06:31:34;13.60;;;7.60;;
46487;SDS011;32202;48.780;9.204;2022-12-07T06:34:01;13.50;;;7.72;;
46487;SDS011;32202;48.780;9.204;2022-12-07T06:36:28;14.20;;;7.75;;
46487;SDS011;32202;48.780;9.204;2022-12-07T06:38:54;20.80;;;11.63;;
46487;SDS011;32202;48.780;9.204;2022-12-07T06:41:20;12.10;;;7.45;;
46487;SDS011;32202;48.780;9.204;2022-12-07T06:43:46;14.38;;;6.97;;
46487;SDS011;32202;48.780;9.204;2022-12-07T06:46:11;11.85;;;6.70;;
46487;SDS011;32202;48.780;9.204;2022-12-07T06:48:37;12.70;;;7.30;;
46487;SDS011;32202;48.780;9.204;2022-12-07T06:51:03;13.75;;;7.22;;
46487;SDS011;32202;48.780;9.204;2022-12-07T06:53:29;14.13;;;7.95;;
46487;SDS011;32202;48.780;9.204;2022-12-07T06:55:56;10.20;;;5.22;;
46487;SDS011;32202;48.780;9.204;2022-12-07T06:58:21;11.18;;;5.80;;
46487;SDS011;32202;48.780;9.204;2022-12-07T07:00:47;12.15;;;5.97;;
46487;SDS011;32202;48.780;9.204;2022-12-07T07:03:15;10.38;;;6.28;;
46487;SDS011;32202;48.780;9.204;2022-12-07T07:05:41;9.20;;;5.53;;
46487;SDS011;32202;48.780;9.204;2022-12-07T07:08:07;10.10;;;4.85;;
46487;SDS011;32202;48.780;9.204;2022-12-07T07:10:32;13.32;;;5.53;;
46487;SDS011;32202;48.780;9.204;2022-12-07T07:12:58;11.45;;;5.72;;
46487;SDS011;32202;48.780;9.204;2022-12-07T07:15:24;9.13;;;5.18;;
46487;SDS011;32202;48.780;9.204;2022-12-07T07:17:49;9.27;;;5.40;;
46487;SDS011;32202;48.780;9.204;2022-12-07T07:20:15;10.98;;;5.70;;
46487;SDS011;32202;48.780;9.204;2022-12-07T07:22:41;10.52;;;5.68;;
46487;SDS011;32202;48.780;9.204;2022-12-07T07:25:06;8.27;;;4.90;;
46487;SDS011;32202;48.780;9.204;2022-12-07T07:27:32;8.98;;;5.03;;
46487;SDS011;32202;48.780;9.204;2022-12-07T07:29:58;11.45;;;6.18;;
46487;SDS011;32202;48.780;9.204;2022-12-07T07:32:23;8.38;;;5.00;;
46487;SDS011;32202;48.780;9.204;2022-12-07T07:34:49;7.95;;;4.38;;
46487;SDS011;32202;48.780;9.204;2022-12-07T07:37:15;7.88;;;4.68;;
46487;SDS011;32202;48.780;9.204;2022-12-07T07:39:40;8.13;;;4.55;;
46487;SDS011;32202;48.780;9.204;2022-12-07T07:42:06;8.73;;;5.00;;
46487;SDS011;32202;48.780;9.204;2022-12-07T07:44:32;8.85;;;5.00;;
46487;SDS011;32202;48.780;9.204;2022-12-07T07:46:58;8.05;;;4.47;;
46487;SDS011;32202;48.780;9.204;2022-12-07T07:49:25;9.52;;;5.20;;
46487;SDS011;32202;48.780;9.204;2022-12-07T07:51:51;9.75;;;5.05;;
46487;SDS011;32202;48.780;9.204;2022-12-07T07:54:16;9.30;;;5.32;;
46487;SDS011;32202;48.780;9.204;2022-12-07T07:56:42;7.82;;;4.88;;
46487;SDS011;32202;48.780;9.204;2022-12-07T07:59:07;10.73;;;5.28;;
46487;SDS011;32202;48.780;9.204;2022-12-07T08:01:33;9.18;;;4.50;;
46487;SDS011;32202;48.780;9.204;2022-12-07T08:03:59;9.40;;;4.70;;
46487;SDS011;32202;48.780;9.204;2022-12-07T08:06:24;8.23;;;4.95;;
46487;SDS011;32202;48.780;9.204;2022-12-07T08:08:50;8.63;;;4.68;;
46487;SDS011;32202;48.780;9.204;2022-12-07T08:11:16;10.23;;;4.78;;
46487;SDS011;32202;48.780;9.204;2022-12-07T08:13:42;8.23;;;4.90;;
46487;SDS011;32202;48.780;9.204;2022-12-07T08:16:11;8.65;;;4.90;;
46487;SDS011;32202;48.780;9.204;2022-12-07T08:18:38;9.10;;;5.05;;
46487;SDS011;32202;48.780;9.204;2022-12-07T08:21:05;10.73;;;5.53;;
46487;SDS011;32202;48.780;9.204;2022-12-07T08:23:32;8.15;;;4.75;;
46487;SDS011;32202;48.780;9.204;2022-12-07T08:26:12;9.05;;;5.07;;
46487;SDS011;32202;48.780;9.204;2022-12-07T08:31:09;14.05;;;5.05;;
46487;SDS011;32202;48.780;9.204;2022-12-07T08:33:37;8.77;;;4.53;;
46487;SDS011;32202;48.780;9.204;2022-12-07T08:36:07;10.52;;;5.97;;
46487;SDS011;32202;48.780;9.204;2022-12-07T08:38:36;9.05;;;5.10;;
46487;SDS011;32202;48.780;9.204;2022-12-07T08:41:02;10.00;;;4.93;;
46487;SDS011;32202;48.780;9.204;2022-12-07T08:43:28;9.65;;;4.75;;
46487;SDS011;32202;48.780;9.204;2022-12-07T08:46:15;10.25;;;4.65;;
46487;SDS011;32202;48.780;9.204;2022-12-07T08:48:52;9.70;;;4.95;;
46487;SDS011;32202;48.780;9.204;2022-12-07T08:51:21;8.70;;;4.63;;
46487;SDS011;32202;48.780;9.204;2022-12-07T08:53:48;8.05;;;4.40;;
46487;SDS011;32202;48.780;9.204;2022-12-07T08:56:15;7.32;;;4.40;;
46487;SDS011;32202;48.780;9.204;2022-12-07T08:58:41;8.25;;;4.72;;
46487;SDS011;32202;48.780;9.204;2022-12-07T09:01:07;12.02;;;5.40;;
46487;SDS011;32202;48.780;9.204;2022-12-07T09:03:33;11.55;;;6.82;;
46487;SDS011;32202;48.780;9.204;2022-12-07T09:05:58;9.32;;;5.10;;
46487;SDS011;32202;48.780;9.204;2022-12-07T09:08:26;8.38;;;4.78;;
46487;SDS011;32202;48.780;9.204;2022-12-07T09:10:58;8.05;;;4.75;;
46487;SDS011;32202;48.780;9.204;2022-12-07T09:13:24;7.38;;;4.20;;
46487;SDS011;32202;48.780;9.204;2022-12-07T09:15:49;9.10;;;5.38;;
46487;SDS011;32202;48.780;9.204;2022-12-07T09:18:15;7.70;;;4.65;;
46487;SDS011;32202;48.780;9.204;2022-12-07T09:20:41;12.57;;;6.22;;
46487;SDS011;32202;48.780;9.204;2022-12-07T09:23:06;8.02;;;4.50;;
46487;SDS011;32202;48.780;9.204;2022-12-07T09:25:32;7.82;;;4.43;;
46487;SDS011;32202;48.780;9.204;2022-12-07T09:27:59;6.45;;;4.18;;
46487;SDS011;32202;48.780;9.204;2022-12-07T09:30:25;11.82;;;5.32;;
46487;SDS011;32202;48.780;9.204;2022-12-07T09:32:55;11.90;;;6.20;;
46487;SDS011;32202;48.780;9.204;2022-12-07T09:35:22;8.15;;;4.22;;
46487;SDS011;32202;48.780;9.204;2022-12-07T09:37:48;9.15;;;4.95;;
46487;SDS011;32202;48.780;9.204;2022-12-07T09:40:14;7.47;;;4.18;;
46487;SDS011;32202;48.780;9.204;2022-12-07T09:42:43;6.20;;;3.60;;
46487;SDS011;32202;48.780;9.204;2022-12-07T09:45:13;8.43;;;3.97;;
46487;SDS011;32202;48.780;9.204;2022-12-07T09:47:43;8.05;;;3.55;;
46487;SDS011;32202;48.780;9.204;2022-12-07T09:50:14;5.25;;;3.15;;
46487;SDS011;32202;48.780;9.204;2022-12-07T09:52:42;5.57;;;3.42;;
46487;SDS011;32202;48.780;9.204;2022-12-07T09:55:14;7.25;;;3.50;;
46487;SDS011;32202;48.780;9.204;2022-12-07T09:57:44;7.22;;;3.58;;
46487;SDS011;32202;48.780;9.204;2022-12-07T10:00:17;6.10;;;3.20;;
46487;SDS011;32202;48.780;9.204;2022-12-07T10:02:47;4.97;;;2.85;;
46487;SDS011;32202;48.780;9.204;2022-12-07T10:05:28;4.40;;;2.97;;
46487;SDS011;32202;48.780;9.204;2022-12-07T10:07:58;8.75;;;3.72;;
46487;SDS011;32202;48.780;9.204;2022-12-07T10:10:25;6.28;;;3.28;;
46487;SDS011;32202;48.780;9.204;2022-12-07T10:15:22;9.57;;;3.47;;
46487;SDS011;32202;48.780;9.204;2022-12-07T10:17:50;5.50;;;2.92;;
46487;SDS011;32202;48.780;9.204;2022-12-07T10:22:55;5.20;;;3.08;;
46487;SDS011;32202;48.780;9.204;2022-12-07T10:25:23;4.68;;;2.80;;
46487;SDS011;32202;48.780;9.204;2022-12-07T10:31:37;5.90;;;2.45;;
46487;SDS011;32202;48.780;9.204;2022-12-07T10:33:49;6.68;;;3.33;;
46487;SDS011;32202;48.780;9.204;2022-12-07T10:36:16;5.00;;;2.70;;
46487;SDS011;32202;48.780;9.204;2022-12-07T10:38:46;4.53;;;3.03;;
46487;SDS011;32202;48.780;9.204;2022-12-07T10:41:14;6.63;;;2.60;;
46487;SDS011;32202;48.780;9.204;2022-12-07T10:43:46;6.53;;;2.85;;
46487;SDS011;32202;48.780;9.204;2022-12-07T10:49:19;9.65;;;4.25;;
46487;SDS011;32202;48.780;9.204;2022-12-07T10:51:55;6.00;;;3.55;;
46487;SDS011;32202;48.780;9.204;2022-12-07T11:27:23;8.43;;;2.50;;
46487;SDS011;32202;48.780;9.204;2022-12-07T11:38:07;9.80;;;3.97;;
46487;SDS011;32202;48.780;9.204;2022-12-07T11:40:39;14.90;;;8.77;;
46487;SDS011;32202;48.780;9.204;2022-12-07T11:43:17;8.98;;;3.97;;
46487;SDS011;32202;48.780;9.204;2022-12-07T11:45:46;4.25;;;2.45;;
46487;SDS011;32202;48.780;9.204;2022-12-07T11:51:22;3.78;;;2.10;;
46487;SDS011;32202;48.780;9.204;2022-12-07T11:53:55;5.03;;;2.67;;
46487;SDS011;32202;48.780;9.204;2022-12-07T11:56:27;3.42;;;2.35;;
46487;SDS011;32202;48.780;9.204;2022-12-07T11:58:57;7.28;;;2.80;;
46487;SDS011;32202;48.780;9.204;2022-12-07T12:04:16;7.97;;;4.05;;
46487;SDS011;32202;48.780;9.204;2022-12-07T12:06:44;6.78;;;3.90;;
46487;SDS011;32202;48.780;9.204;2022-12-07T12:22:40;9.75;;;4.53;;
46487;SDS011;32202;48.780;9.204;2022-12-07T12:25:28;9.50;;;4.68;;
46487;SDS011;32202;48.780;9.204;2022-12-07T12:28:04;8.73;;;4.80;;
46487;SDS011;32202;48.780;9.204;2022-12-07T12:30:39;8.40;;;4.93;;
46487;SDS011;32202;48.780;9.204;2022-12-07T12:33:17;7.28;;;4.32;;
46487;SDS011;32202;48.780;9.204;2022-12-07T12:43:59;8.13;;;4.72;;
46487;SDS011;32202;48.780;9.204;2022-12-07T12:51:44;7.72;;;4.35;;
46487;SDS011;32202;48.780;9.204;2022-12-07T12:54:24;7.03;;;3.63;;
46487;SDS011;32202;48.780;9.204;2022-12-07T12:57:05;6.95;;;4.32;;
46487;SDS011;32202;48.780;9.204;2022-12-07T12:59:35;7.68;;;4.05;;
46487;SDS011;32202;48.780;9.204;2022-12-07T13:02:39;6.43;;;3.75;;
46487;SDS011;32202;48.780;9.204;2022-12-07T13:05:18;7.28;;;4.00;;
46487;SDS011;32202;48.780;9.204;2022-12-07T13:07:53;7.43;;;4.60;;
46487;SDS011;32202;48.780;9.204;2022-12-07T13:18:40;8.13;;;4.78;;
46487;SDS011;32202;48.780;9.204;2022-12-07T13:20:59;7.65;;;4.88;;
46487;SDS011;32202;48.780;9.204;2022-12-07T13:28:40;9.07;;;4.65;;
46487;SDS011;32202;48.780;9.204;2022-12-07T13:33:35;5.97;;;3.88;;
46487;SDS011;32202;48.780;9.204;2022-12-07T13:36:01;9.57;;;5.22;;
46487;SDS011;32202;48.780;9.204;2022-12-07T13:38:31;8.60;;;4.57;;
46487;SDS011;32202;48.780;9.204;2022-12-07T13:41:11;8.00;;;4.18;;
46487;SDS011;32202;48.780;9.204;2022-12-07T13:43:53;11.85;;;4.22;;
46487;SDS011;32202;48.780;9.204;2022-12-07T13:46:25;7.72;;;4.05;;
46487;SDS011;32202;48.780;9.204;2022-12-07T13:49:00;7.03;;;4.00;;
46487;SDS011;32202;48.780;9.204;2022-12-07T13:51:26;9.52;;;4.40;;
46487;SDS011;32202;48.780;9.204;2022-12-07T13:53:53;6.68;;;4.20;;
46487;SDS011;32202;48.780;9.204;2022-12-07T13:56:26;7.82;;;4.47;;
46487;SDS011;32202;48.780;9.204;2022-12-07T13:58:59;7.35;;;4.00;;
46487;SDS011;32202;48.780;9.204;2022-12-07T14:01:26;8.30;;;4.95;;
46487;SDS011;32202;48.780;9.204;2022-12-07T14:03:53;7.95;;;4.30;;
46487;SDS011;32202;48.780;9.204;2022-12-07T14:06:23;9.32;;;4.85;;
46487;SDS011;32202;48.780;9.204;2022-12-07T14:09:05;8.13;;;4.43;;
46487;SDS011;32202;48.780;9.204;2022-12-07T14:11:41;15.90;;;4.68;;
46487;SDS011;32202;48.780;9.204;2022-12-07T14:14:10;7.30;;;4.47;;
46487;SDS011;32202;48.780;9.204;2022-12-07T14:16:40;10.00;;;4.68;;
46487;SDS011;32202;48.780;9.204;2022-12-07T14:19:38;9.30;;;5.65;;
46487;SDS011;32202;48.780;9.204;2022-12-07T14:22:23;7.30;;;4.40;;
46487;SDS011;32202;48.780;9.204;2022-12-07T14:24:58;8.57;;;5.00;;
46487;SDS011;32202;48.780;9.204;2022-12-07T14:27:57;9.75;;;5.32;;
46487;SDS011;32202;48.780;9.204;2022-12-07T14:30:30;10.00;;;5.50;;
46487;SDS011;32202;48.780;9.204;2022-12-07T14:33:00;8.85;;;5.43;;
46487;SDS011;32202;48.780;9.204;2022-12-07T14:35:28;9.90;;;5.10;;
46487;SDS011;32202;48.780;9.204;2022-12-07T14:37:54;9.65;;;4.90;;
46487;SDS011;32202;48.780;9.204;2022-12-07T14:40:21;8.15;;;5.25;;
46487;SDS011;32202;48.780;9.204;2022-12-07T14:43:02;9.82;;;4.63;;
46487;SDS011;32202;48.780;9.204;2022-12-07T14:45:29;7.55;;;4.65;;
46487;SDS011;32202;48.780;9.204;2022-12-07T14:47:55;7.60;;;4.97;;
46487;SDS011;32202;48.780;9.204;2022-12-07T14:50:21;10.60;;;5.70;;
46487;SDS011;32202;48.780;9.204;2022-12-07T14:52:48;10.15;;;5.00;;
46487;SDS011;32202;48.780;9.204;2022-12-07T14:57:49;10.63;;;5.65;;
46487;SDS011;32202;48.780;9.204;2022-12-07T15:00:15;10.25;;;5.72;;
46487;SDS011;32202;48.780;9.204;2022-12-07T15:02:43;10.43;;;5.85;;
46487;SDS011;32202;48.780;9.204;2022-12-07T15:05:10;8.93;;;5.45;;
46487;SDS011;32202;48.780;9.204;2022-12-07T15:07:35;8.38;;;5.60;;
46487;SDS011;32202;48.780;9.204;2022-12-07T15:10:01;11.77;;;5.22;;
46487;SDS011;32202;48.780;9.204;2022-12-07T15:12:28;12.65;;;6.82;;
46487;SDS011;32202;48.780;9.204;2022-12-07T15:14:53;9.45;;;5.28;;
46487;SDS011;32202;48.780;9.204;2022-12-07T15:17:19;20.15;;;11.38;;
46487;SDS011;32202;48.780;9.204;2022-12-07T15:19:45;11.45;;;7.45;;
46487;SDS011;32202;48.780;9.204;2022-12-07T15:22:10;10.07;;;6.05;;
46487;SDS011;32202;48.780;9.204;2022-12-07T15:24:36;11.48;;;6.25;;
46487;SDS011;32202;48.780;9.204;2022-12-07T15:27:02;10.85;;;5.50;;
46487;SDS011;32202;48.780;9.204;2022-12-07T15:29:28;9.50;;;5.50;;
46487;SDS011;32202;48.780;9.204;2022-12-07T15:31:54;14.10;;;5.53;;
46487;SDS011;32202;48.780;9.204;2022-12-07T15:34:20;9.75;;;5.20;;
46487;SDS011;32202;48.780;9.204;2022-12-07T15:36:46;10.05;;;4.85;;
46487;SDS011;32202;48.780;9.204;2022-12-07T15:39:11;8.90;;;4.80;;
46487;SDS011;32202;48.780;9.204;2022-12-07T15:41:37;7.82;;;4.72;;
46487;SDS011;32202;48.780;9.204;2022-12-07T15:44:03;8.07;;;4.82;;
46487;SDS011;32202;48.780;9.204;2022-12-07T15:46:48;8.00;;;4.85;;
46487;SDS011;32202;48.780;9.204;2022-12-07T15:49:15;9.93;;;5.55;;
46487;SDS011;32202;48.780;9.204;2022-12-07T15:51:42;7.70;;;4.68;;
46487;SDS011;32202;48.780;9.204;2022-12-07T15:54:19;10.68;;;5.45;;
46487;SDS011;32202;48.780;9.204;2022-12-07T15:56:47;9.88;;;5.30;;
46487;SDS011;32202;48.780;9.204;2022-12-07T15:59:14;11.10;;;5.57;;
46487;SDS011;32202;48.780;9.204;2022-12-07T16:01:40;9.55;;;5.20;;
46487;SDS011;32202;48.780;9.204;2022-12-07T16:04:06;10.48;;;5.68;;
46487;SDS011;32202;48.780;9.204;2022-12-07T16:06:32;10.20;;;5.38;;
46487;SDS011;32202;48.780;9.204;2022-12-07T16:08:58;10.13;;;5.43;;
46487;SDS011;32202;48.780;9.204;2022-12-07T16:11:24;11.20;;;6.45;;
46487;SDS011;32202;48.780;9.204;2022-12-07T16:13:50;8.65;;;5.70;;
46487;SDS011;32202;48.780;9.204;2022-12-07T16:16:16;9.80;;;5.75;;
46487;SDS011;32202;48.780;9.204;2022-12-07T16:18:44;10.65;;;5.95;;
46487;SDS011;32202;48.780;9.204;2022-12-07T16:21:10;20.10;;;12.73;;
46487;SDS011;32202;48.780;9.204;2022-12-07T16:23:36;11.40;;;6.57;;
46487;SDS011;32202;48.780;9.204;2022-12-07T16:26:06;10.90;;;6.55;;
46487;SDS011;32202;48.780;9.204;2022-12-07T16:28:42;11.90;;;7.00;;
46487;SDS011;32202;48.780;9.204;2022-12-07T16:31:13;15.70;;;8.90;;
46487;SDS011;32202;48.780;9.204;2022-12-07T16:33:40;11.88;;;7.10;;
46487;SDS011;32202;48.780;9.204;2022-12-07T16:36:08;12.05;;;7.00;;
46487;SDS011;32202;48.780;9.204;2022-12-07T16:38:34;12.82;;;7.13;;
46487;SDS011;32202;48.780;9.204;2022-12-07T16:41:00;11.77;;;6.68;;
46487;SDS011;32202;48.780;9.204;2022-12-07T16:43:26;12.55;;;7.03;;
46487;SDS011;32202;48.780;9.204;2022-12-07T16:45:52;14.40;;;8.00;;
46487;SDS011;32202;48.780;9.204;2022-12-07T16:48:17;13.65;;;6.80;;
46487;SDS011;32202;48.780;9.204;2022-12-07T16:50:43;12.93;;;7.18;;
46487;SDS011;32202;48.780;9.204;2022-12-07T16:53:10;12.30;;;6.57;;
46487;SDS011;32202;48.780;9.204;2022-12-07T16:55:37;16.60;;;7.18;;
46487;SDS011;32202;48.780;9.204;2022-12-07T16:58:04;12.68;;;7.10;;
46487;SDS011;32202;48.780;9.204;2022-12-07T17:00:30;16.50;;;7.70;;
46487;SDS011;32202;48.780;9.204;2022-12-07T17:02:56;14.68;;;7.38;;
46487;SDS011;32202;48.780;9.204;2022-12-07T17:05:21;13.80;;;7.50;;
46487;SDS011;32202;48.780;9.204;2022-12-07T17:07:47;13.38;;;6.93;;
46487;SDS011;32202;48.780;9.204;2022-12-07T17:10:12;12.77;;;7.43;;
46487;SDS011;32202;48.780;9.204;2022-12-07T17:12:38;14.65;;;7.65;;
46487;SDS011;32202;48.780;9.204;2022-12-07T17:15:04;15.90;;;7.55;;
46487;SDS011;32202;48.780;9.204;2022-12-07T17:17:42;14.15;;;7.75;;